sensor_id;sensor_type;location;lat;lon;timestamp;pressure;altitude;pressure_sealevel;temperature;humidity
12349;BME280;5974;42.710;27.258;2023-07-29T00:00:14;99907.34;;;17.80;100.00
12349;BME280;5974;42.710;27.258;2023-07-29T00:02:40;99911.91;;;17.42;100.00
12349;BME280;5974;42.710;27.258;2023-07-29T00:05:07;99907.25;;;16.96;100.00
12349;BME280;5974;42.710;27.258;2023-07-29T00:07:34;99923.84;;;16.86;100.00
12349;BME280;5974;42.710;27.258;2023-07-29T00:10:03;99918.28;;;17.26;100.00
12349;BME280;5974;42.710;27.258;2023-07-29T00:12:30;99918.78;;;17.44;100.00
12349;BME280;5974;42.710;27.258;2023-07-29T00:14:57;99905.66;;;17.55;100.00
12349;BME280;5974;42.710;27.258;2023-07-29T00:17:24;99905.72;;;17.54;100.00
12349;BME280;5974;42.710;27.258;2023-07-29T00:19:51;99909.34;;;17.16;100.00
12349;BME280;5974;42.710;27.258;2023-07-29T00:22:18;99898.91;;;17.39;100.00
12349;BME280;5974;42.710;27.258;2023-07-29T00:24:45;99901.91;;;17.34;100.00
12349;BME280;5974;42.710;27.258;2023-07-29T00:27:18;99897.28;;;17.12;100.00
12349;BME280;5974;42.710;27.258;2023-07-29T00:29:45;99901.75;;;16.99;100.00
12349;BME280;5974;42.710;27.258;2023-07-29T00:32:12;99896.16;;;16.91;100.00
12349;BME280;5974;42.710;27.258;2023-07-29T00:34:39;99905.66;;;16.94;100.00
12349;BME280;5974;42.710;27.258;2023-07-29T00:37:06;99900.59;;;16.91;100.00
12349;BME280;5974;42.710;27.258;2023-07-29T00:39:33;99895.53;;;16.88;100.00
12349;BME280;5974;42.710;27.258;2023-07-29T00:42:00;99893.19;;;16.83;100.00
12349;BME280;5974;42.710;27.258;2023-07-29T00:44:28;99891.00;;;16.77;100.00
12349;BME280;5974;42.710;27.258;2023-07-29T00:46:57;99893.41;;;16.80;100.00
12349;BME280;5974;42.710;27.258;2023-07-29T00:49:25;99891.75;;;16.66;100.00
12349;BME280;5974;42.710;27.258;2023-07-29T00:51:52;99892.47;;;16.68;100.00
12349;BME280;5974;42.710;27.258;2023-07-29T00:54:19;99885.38;;;16.44;100.00
12349;BME280;5974;42.710;27.258;2023-07-29T00:56:46;99891.38;;;16.46;100.00
12349;BME280;5974;42.710;27.258;2023-07-29T00:59:13;99889.41;;;16.62;100.00
12349;BME280;5974;42.710;27.258;2023-07-29T01:01:41;99890.16;;;16.64;100.00
12349;BME280;5974;42.710;27.258;2023-07-29T01:04:08;99883.72;;;16.68;100.00
12349;BME280;5974;42.710;27.258;2023-07-29T01:06:44;99884.03;;;16.63;100.00
12349;BME280;5974;42.710;27.258;2023-07-29T01:09:20;99885.25;;;16.33;100.00
12349;BME280;5974;42.710;27.258;2023-07-29T01:11:58;99897.19;;;16.51;100.00
12349;BME280;5974;42.710;27.258;2023-07-29T01:14:33;99882.88;;;16.55;100.00
12349;BME280;5974;42.710;27.258;2023-07-29T01:17:08;99884.34;;;16.59;100.00
12349;BME280;5974;42.710;27.258;2023-07-29T01:19:55;99887.50;;;16.51;100.00
12349;BME280;5974;42.710;27.258;2023-07-29T01:22:26;99882.31;;;16.50;100.00
12349;BME280;5974;42.710;27.258;2023-07-29T01:24:57;99881.16;;;16.54;100.00
12349;BME280;5974;42.710;27.258;2023-07-29T01:27:24;99878.44;;;16.55;100.00
12349;BME280;5974;42.710;27.258;2023-07-29T01:29:51;99864.25;;;16.44;100.00
12349;BME280;5974;42.710;27.258;2023-07-29T01:32:21;99883.69;;;16.30;100.00
12349;BME280;5974;42.710;27.258;2023-07-29T01:34:57;99867.53;;;16.47;100.00
12349;BME280;5974;42.710;27.258;2023-07-29T01:37:30;99876.94;;;16.51;100.00
12349;BME280;5974;42.710;27.258;2023-07-29T01:40:00;99875.88;;;16.41;100.00
12349;BME280;5974;42.710;27.258;2023-07-29T01:42:28;99861.31;;;16.36;100.00
12349;BME280;5974;42.710;27.258;2023-07-29T01:44:56;99863.31;;;16.32;100.00
12349;BME280;5974;42.710;27.258;2023-07-29T01:47:23;99857.38;;;16.16;100.00
12349;BME280;5974;42.710;27.258;2023-07-29T01:49:49;99870.91;;;16.24;100.00
12349;BME280;5974;42.710;27.258;2023-07-29T01:52:16;99864.63;;;16.12;100.00
12349;BME280;5974;42.710;27.258;2023-07-29T01:54:44;99877.72;;;16.01;100.00
12349;BME280;5974;42.710;27.258;2023-07-29T01:57:12;99869.69;;;16.03;100.00
12349;BME280;5974;42.710;27.258;2023-07-29T01:59:39;99833.34;;;15.81;100.00
12349;BME280;5974;42.710;27.258;2023-07-29T02:02:06;99867.66;;;15.94;100.00
12349;BME280;5974;42.710;27.258;2023-07-29T02:04:33;99868.44;;;15.96;100.00
12349;BME280;5974;42.710;27.258;2023-07-29T02:06:59;99869.69;;;15.90;100.00
12349;BME280;5974;42.710;27.258;2023-07-29T02:09:26;99869.16;;;15.98;100.00
12349;BME280;5974;42.710;27.258;2023-07-29T02:11:53;99871.91;;;16.09;100.00
12349;BME280;5974;42.710;27.258;2023-07-29T02:14:21;99873.72;;;16.08;100.00
12349;BME280;5974;42.710;27.258;2023-07-29T02:16:48;99862.09;;;15.98;100.00
12349;BME280;5974;42.710;27.258;2023-07-29T02:19:15;99870.41;;;15.92;100.00
12349;BME280;5974;42.710;27.258;2023-07-29T02:21:42;99865.38;;;16.02;100.00
12349;BME280;5974;42.710;27.258;2023-07-29T02:24:09;99862.84;;;16.00;100.00
12349;BME280;5974;42.710;27.258;2023-07-29T02:26:36;99819.19;;;15.69;100.00
12349;BME280;5974;42.710;27.258;2023-07-29T02:29:03;99872.19;;;15.92;100.00
12349;BME280;5974;42.710;27.258;2023-07-29T02:31:31;99871.69;;;15.87;100.00
12349;BME280;5974;42.710;27.258;2023-07-29T02:34:00;99874.91;;;15.78;100.00
12349;BME280;5974;42.710;27.258;2023-07-29T02:36:27;99872.88;;;15.68;100.00
12349;BME280;5974;42.710;27.258;2023-07-29T02:38:53;99878.50;;;15.77;100.00
12349;BME280;5974;42.710;27.258;2023-07-29T02:41:20;99875.84;;;15.77;100.00
12349;BME280;5974;42.710;27.258;2023-07-29T02:43:48;99877.50;;;15.65;100.00
12349;BME280;5974;42.710;27.258;2023-07-29T02:46:15;99884.69;;;15.76;100.00
12349;BME280;5974;42.710;27.258;2023-07-29T02:48:44;99885.53;;;15.76;100.00
12349;BME280;5974;42.710;27.258;2023-07-29T02:51:11;99872.97;;;15.26;100.00
12349;BME280;5974;42.710;27.258;2023-07-29T02:53:38;99894.88;;;15.41;100.00
12349;BME280;5974;42.710;27.258;2023-07-29T02:56:05;99875.88;;;15.50;100.00
12349;BME280;5974;42.710;27.258;2023-07-29T02:58:35;99899.13;;;15.70;100.00
12349;BME280;5974;42.710;27.258;2023-07-29T03:01:03;99899.66;;;15.48;100.00
12349;BME280;5974;42.710;27.258;2023-07-29T03:03:30;99895.97;;;15.65;100.00
12349;BME280;5974;42.710;27.258;2023-07-29T03:06:01;99894.72;;;15.70;100.00
12349;BME280;5974;42.710;27.258;2023-07-29T03:08:28;99897.69;;;15.79;100.00
12349;BME280;5974;42.710;27.258;2023-07-29T03:10:55;99878.03;;;15.70;100.00
12349;BME280;5974;42.710;27.258;2023-07-29T03:13:22;99896.53;;;15.83;100.00
12349;BME280;5974;42.710;27.258;2023-07-29T03:15:49;99894.00;;;15.81;100.00
12349;BME280;5974;42.710;27.258;2023-07-29T03:18:16;99896.25;;;15.87;100.00
12349;BME280;5974;42.710;27.258;2023-07-29T03:20:43;99900.28;;;15.25;100.00
12349;BME280;5974;42.710;27.258;2023-07-29T03:23:12;99902.94;;;15.79;100.00
12349;BME280;5974;42.710;27.258;2023-07-29T03:25:38;99893.06;;;15.82;100.00
12349;BME280;5974;42.710;27.258;2023-07-29T03:28:05;99895.53;;;15.98;100.00
12349;BME280;5974;42.710;27.258;2023-07-29T03:30:32;99888.34;;;15.87;100.00
12349;BME280;5974;42.710;27.258;2023-07-29T03:32:59;99854.63;;;15.65;100.00
12349;BME280;5974;42.710;27.258;2023-07-29T03:35:26;99903.69;;;16.07;100.00
12349;BME280;5974;42.710;27.258;2023-07-29T03:37:53;99900.84;;;16.10;100.00
12349;BME280;5974;42.710;27.258;2023-07-29T03:40:21;99901.94;;;16.33;100.00
12349;BME280;5974;42.710;27.258;2023-07-29T03:42:49;99891.28;;;16.47;100.00
12349;BME280;5974;42.710;27.258;2023-07-29T03:45:16;99892.06;;;16.10;100.00
12349;BME280;5974;42.710;27.258;2023-07-29T03:47:43;99907.34;;;15.92;100.00
12349;BME280;5974;42.710;27.258;2023-07-29T03:50:10;99917.38;;;16.39;100.00
12349;BME280;5974;42.710;27.258;2023-07-29T03:52:36;99902.53;;;16.63;100.00
12349;BME280;5974;42.710;27.258;2023-07-29T03:55:04;99913.28;;;16.86;100.00
12349;BME280;5974;42.710;27.258;2023-07-29T03:57:32;99917.31;;;16.91;100.00
12349;BME280;5974;42.710;27.258;2023-07-29T03:59:59;99909.66;;;17.12;100.00
12349;BME280;5974;42.710;27.258;2023-07-29T04:02:26;99917.00;;;17.32;100.00
12349;BME280;5974;42.710;27.258;2023-07-29T04:04:53;99911.22;;;17.51;100.00
12349;BME280;5974;42.710;27.258;2023-07-29T04:07:20;99895.50;;;17.49;100.00
12349;BME280;5974;42.710;27.258;2023-07-29T04:09:46;99907.13;;;17.83;100.00
12349;BME280;5974;42.710;27.258;2023-07-29T04:12:14;99899.75;;;17.99;100.00
12349;BME280;5974;42.710;27.258;2023-07-29T04:14:42;99896.75;;;18.38;100.00
12349;BME280;5974;42.710;27.258;2023-07-29T04:17:09;99902.13;;;19.27;100.00
12349;BME280;5974;42.710;27.258;2023-07-29T04:19:36;99833.78;;;22.61;100.00
12349;BME280;5974;42.710;27.258;2023-07-29T04:22:03;99865.22;;;26.77;100.00
12349;BME280;5974;42.710;27.258;2023-07-29T04:24:30;99863.69;;;30.11;77.83
12349;BME280;5974;42.710;27.258;2023-07-29T04:26:57;99866.88;;;32.45;64.15
12349;BME280;5974;42.710;27.258;2023-07-29T04:29:24;99876.31;;;33.77;57.12
12349;BME280;5974;42.710;27.258;2023-07-29T04:31:52;99859.16;;;35.85;50.13
12349;BME280;5974;42.710;27.258;2023-07-29T04:34:19;99876.03;;;37.05;46.68
12349;BME280;5974;42.710;27.258;2023-07-29T04:36:46;99882.16;;;37.23;44.50
12349;BME280;5974;42.710;27.258;2023-07-29T04:39:14;99879.53;;;35.34;46.15
12349;BME280;5974;42.710;27.258;2023-07-29T04:41:43;99881.06;;;34.69;47.28
12349;BME280;5974;42.710;27.258;2023-07-29T04:44:10;99895.75;;;35.89;45.53
12349;BME280;5974;42.710;27.258;2023-07-29T04:46:37;99891.44;;;37.62;42.94
12349;BME280;5974;42.710;27.258;2023-07-29T04:49:05;99889.25;;;36.43;44.21
12349;BME280;5974;42.710;27.258;2023-07-29T04:51:32;99885.50;;;37.14;43.40
12349;BME280;5974;42.710;27.258;2023-07-29T04:53:59;99889.56;;;37.51;42.03
12349;BME280;5974;42.710;27.258;2023-07-29T04:56:26;99887.38;;;37.13;41.38
12349;BME280;5974;42.710;27.258;2023-07-29T04:58:53;99870.06;;;36.26;42.45
12349;BME280;5974;42.710;27.258;2023-07-29T05:01:20;99885.16;;;35.99;42.22
12349;BME280;5974;42.710;27.258;2023-07-29T05:03:47;99885.03;;;36.70;41.59
12349;BME280;5974;42.710;27.258;2023-07-29T05:06:15;99885.75;;;36.54;41.80
12349;BME280;5974;42.710;27.258;2023-07-29T05:08:42;99858.56;;;37.17;40.84
12349;BME280;5974;42.710;27.258;2023-07-29T05:11:09;99888.03;;;37.55;40.91
12349;BME280;5974;42.710;27.258;2023-07-29T05:13:36;99884.34;;;37.10;40.54
12349;BME280;5974;42.710;27.258;2023-07-29T05:16:03;99880.66;;;36.81;40.81
12349;BME280;5974;42.710;27.258;2023-07-29T05:18:30;99886.75;;;37.46;40.16
12349;BME280;5974;42.710;27.258;2023-07-29T05:20:57;99880.16;;;38.32;39.27
12349;BME280;5974;42.710;27.258;2023-07-29T05:23:25;99871.44;;;37.33;39.63
12349;BME280;5974;42.710;27.258;2023-07-29T05:25:52;99897.13;;;38.84;38.14
12349;BME280;5974;42.710;27.258;2023-07-29T05:28:19;99891.25;;;37.80;38.17
12349;BME280;5974;42.710;27.258;2023-07-29T05:30:46;99906.72;;;37.63;39.37
12349;BME280;5974;42.710;27.258;2023-07-29T05:33:13;99905.88;;;38.19;37.86
12349;BME280;5974;42.710;27.258;2023-07-29T05:35:39;99908.06;;;38.67;38.19
12349;BME280;5974;42.710;27.258;2023-07-29T05:38:06;99915.75;;;39.03;37.22
12349;BME280;5974;42.710;27.258;2023-07-29T05:40:35;99914.81;;;37.98;39.20
12349;BME280;5974;42.710;27.258;2023-07-29T05:43:03;99925.47;;;39.33;36.92
12349;BME280;5974;42.710;27.258;2023-07-29T05:45:30;99933.44;;;38.63;37.28
12349;BME280;5974;42.710;27.258;2023-07-29T05:47:57;99928.09;;;39.66;36.16
12349;BME280;5974;42.710;27.258;2023-07-29T05:50:24;99936.03;;;39.08;36.40
12349;BME280;5974;42.710;27.258;2023-07-29T05:52:51;99932.53;;;38.57;37.43
12349;BME280;5974;42.710;27.258;2023-07-29T05:55:18;99935.25;;;37.95;37.27
12349;BME280;5974;42.710;27.258;2023-07-29T05:57:46;99936.31;;;37.43;38.64
12349;BME280;5974;42.710;27.258;2023-07-29T06:00:13;99933.09;;;37.97;37.93
12349;BME280;5974;42.710;27.258;2023-07-29T06:02:40;99937.41;;;38.55;37.33
12349;BME280;5974;42.710;27.258;2023-07-29T06:05:07;99937.25;;;38.45;37.49
12349;BME280;5974;42.710;27.258;2023-07-29T06:07:34;99937.00;;;38.63;37.85
12349;BME280;5974;42.710;27.258;2023-07-29T06:10:01;99939.78;;;37.90;36.74
12349;BME280;5974;42.710;27.258;2023-07-29T06:12:28;99931.50;;;39.13;36.24
12349;BME280;5974;42.710;27.258;2023-07-29T06:14:56;99936.88;;;39.25;36.28
12349;BME280;5974;42.710;27.258;2023-07-29T06:17:23;99937.91;;;38.35;36.32
12349;BME280;5974;42.710;27.258;2023-07-29T06:19:50;99928.78;;;39.78;35.10
12349;BME280;5974;42.710;27.258;2023-07-29T06:22:17;99927.41;;;39.16;35.67
12349;BME280;5974;42.710;27.258;2023-07-29T06:24:44;99905.41;;;38.89;35.95
12349;BME280;5974;42.710;27.258;2023-07-29T06:27:11;99922.34;;;38.36;36.18
12349;BME280;5974;42.710;27.258;2023-07-29T06:29:38;99923.00;;;38.76;35.92
12349;BME280;5974;42.710;27.258;2023-07-29T06:32:07;99910.06;;;39.70;35.21
12349;BME280;5974;42.710;27.258;2023-07-29T06:34:34;99916.81;;;40.75;33.64
12349;BME280;5974;42.710;27.258;2023-07-29T06:37:00;99915.53;;;39.97;35.63
12349;BME280;5974;42.710;27.258;2023-07-29T06:39:27;99916.81;;;40.11;34.88
12349;BME280;5974;42.710;27.258;2023-07-29T06:41:54;99917.69;;;40.17;35.07
12349;BME280;5974;42.710;27.258;2023-07-29T06:44:21;99915.31;;;41.46;33.85
12349;BME280;5974;42.710;27.258;2023-07-29T06:46:48;99867.19;;;40.76;33.33
12349;BME280;5974;42.710;27.258;2023-07-29T06:49:16;99911.66;;;41.30;33.80
12349;BME280;5974;42.710;27.258;2023-07-29T06:51:43;99904.63;;;41.59;32.93
12349;BME280;5974;42.710;27.258;2023-07-29T06:54:10;99912.66;;;41.09;33.59
12349;BME280;5974;42.710;27.258;2023-07-29T06:56:37;99896.19;;;41.04;32.38
12349;BME280;5974;42.710;27.258;2023-07-29T06:59:04;99908.44;;;41.43;32.87
12349;BME280;5974;42.710;27.258;2023-07-29T07:01:31;99892.38;;;41.10;34.19
12349;BME280;5974;42.710;27.258;2023-07-29T07:03:57;99915.44;;;43.82;30.12
12349;BME280;5974;42.710;27.258;2023-07-29T07:06:26;99902.56;;;42.12;33.10
12349;BME280;5974;42.710;27.258;2023-07-29T07:08:52;99894.63;;;42.05;33.25
12349;BME280;5974;42.710;27.258;2023-07-29T07:11:19;99906.38;;;41.91;32.27
12349;BME280;5974;42.710;27.258;2023-07-29T07:13:46;99898.16;;;41.96;31.85
12349;BME280;5974;42.710;27.258;2023-07-29T07:16:13;99896.03;;;42.63;30.38
12349;BME280;5974;42.710;27.258;2023-07-29T07:18:40;99894.34;;;41.25;32.66
12349;BME280;5974;42.710;27.258;2023-07-29T07:21:07;99891.59;;;42.22;32.27
12349;BME280;5974;42.710;27.258;2023-07-29T07:23:35;99892.44;;;42.23;31.64
12349;BME280;5974;42.710;27.258;2023-07-29T07:26:02;99881.38;;;42.88;30.90
12349;BME280;5974;42.710;27.258;2023-07-29T07:28:29;99881.16;;;42.70;31.54
12349;BME280;5974;42.710;27.258;2023-07-29T07:30:56;99881.91;;;41.84;31.84
12349;BME280;5974;42.710;27.258;2023-07-29T07:33:23;99882.97;;;44.12;28.56
12349;BME280;5974;42.710;27.258;2023-07-29T07:35:49;99874.53;;;42.76;31.13
12349;BME280;5974;42.710;27.258;2023-07-29T07:38:16;99879.34;;;43.78;29.07
12349;BME280;5974;42.710;27.258;2023-07-29T07:40:53;99869.59;;;41.87;30.35
12349;BME280;5974;42.710;27.258;2023-07-29T07:43:22;99867.28;;;41.58;31.55
12349;BME280;5974;42.710;27.258;2023-07-29T07:45:49;99867.88;;;41.71;30.56
12349;BME280;5974;42.710;27.258;2023-07-29T07:48:16;99856.19;;;43.79;28.53
12349;BME280;5974;42.710;27.258;2023-07-29T07:50:43;99859.34;;;44.01;28.15
12349;BME280;5974;42.710;27.258;2023-07-29T07:53:10;99849.47;;;41.71;29.41
12349;BME280;5974;42.710;27.258;2023-07-29T07:55:38;99850.53;;;41.50;29.80
12349;BME280;5974;42.710;27.258;2023-07-29T07:58:06;99853.13;;;39.72;31.17
12349;BME280;5974;42.710;27.258;2023-07-29T08:00:33;99832.53;;;38.28;32.45
12349;BME280;5974;42.710;27.258;2023-07-29T08:03:00;99842.25;;;38.74;32.16
12349;BME280;5974;42.710;27.258;2023-07-29T08:05:27;99838.81;;;35.87;35.05
12349;BME280;5974;42.710;27.258;2023-07-29T08:07:53;99835.63;;;34.52;35.76
12349;BME280;5974;42.710;27.258;2023-07-29T08:10:20;99824.84;;;33.58;36.16
12349;BME280;5974;42.710;27.258;2023-07-29T08:12:47;99832.81;;;33.59;37.56
12349;BME280;5974;42.710;27.258;2023-07-29T08:15:15;99830.72;;;33.55;37.62
12349;BME280;5974;42.710;27.258;2023-07-29T08:17:42;99827.31;;;33.66;37.70
12349;BME280;5974;42.710;27.258;2023-07-29T08:20:09;99825.56;;;33.47;36.12
12349;BME280;5974;42.710;27.258;2023-07-29T08:22:36;99833.81;;;33.58;35.82
12349;BME280;5974;42.710;27.258;2023-07-29T08:25:04;99824.66;;;33.91;34.37
12349;BME280;5974;42.710;27.258;2023-07-29T08:27:33;99818.69;;;33.75;35.08
12349;BME280;5974;42.710;27.258;2023-07-29T08:30:00;99813.38;;;33.62;34.04
12349;BME280;5974;42.710;27.258;2023-07-29T08:32:28;99815.91;;;33.06;34.39
12349;BME280;5974;42.710;27.258;2023-07-29T08:34:55;99799.81;;;33.62;34.38
12349;BME280;5974;42.710;27.258;2023-07-29T08:37:22;99798.56;;;33.58;35.18
12349;BME280;5974;42.710;27.258;2023-07-29T08:39:48;99799.41;;;34.15;33.40
12349;BME280;5974;42.710;27.258;2023-07-29T08:42:19;99798.81;;;33.50;33.45
12349;BME280;5974;42.710;27.258;2023-07-29T08:44:49;99794.53;;;32.79;36.10
12349;BME280;5974;42.710;27.258;2023-07-29T08:47:16;99784.31;;;32.81;36.81
12349;BME280;5974;42.710;27.258;2023-07-29T08:49:46;99785.34;;;32.86;35.93
12349;BME280;5974;42.710;27.258;2023-07-29T08:52:14;99782.38;;;33.01;35.87
12349;BME280;5974;42.710;27.258;2023-07-29T08:54:41;99786.50;;;33.86;36.08
12349;BME280;5974;42.710;27.258;2023-07-29T08:57:09;99770.97;;;34.24;34.98
12349;BME280;5974;42.710;27.258;2023-07-29T08:59:36;99776.09;;;34.07;34.43
12349;BME280;5974;42.710;27.258;2023-07-29T09:02:03;99739.03;;;33.95;33.76
12349;BME280;5974;42.710;27.258;2023-07-29T09:04:30;99774.47;;;33.75;35.46
12349;BME280;5974;42.710;27.258;2023-07-29T09:06:59;99763.09;;;34.09;35.46
12349;BME280;5974;42.710;27.258;2023-07-29T09:09:26;99759.31;;;33.92;34.72
12349;BME280;5974;42.710;27.258;2023-07-29T09:11:54;99753.06;;;34.16;34.88
12349;BME280;5974;42.710;27.258;2023-07-29T09:14:21;99762.44;;;34.20;34.50
12349;BME280;5974;42.710;27.258;2023-07-29T09:16:48;99766.56;;;34.84;32.38
12349;BME280;5974;42.710;27.258;2023-07-29T09:19:15;99762.56;;;34.25;33.11
12349;BME280;5974;42.710;27.258;2023-07-29T09:21:42;99759.47;;;34.22;32.00
12349;BME280;5974;42.710;27.258;2023-07-29T09:24:10;99765.19;;;34.14;32.36
12349;BME280;5974;42.710;27.258;2023-07-29T09:26:38;99762.41;;;33.96;32.30
12349;BME280;5974;42.710;27.258;2023-07-29T09:29:05;99769.63;;;34.08;31.36
12349;BME280;5974;42.710;27.258;2023-07-29T09:31:31;99759.50;;;33.66;31.63
12349;BME280;5974;42.710;27.258;2023-07-29T09:33:59;99765.19;;;33.89;31.07
12349;BME280;5974;42.710;27.258;2023-07-29T09:36:27;99753.25;;;33.34;32.08
12349;BME280;5974;42.710;27.258;2023-07-29T09:38:54;99756.03;;;33.84;30.88
12349;BME280;5974;42.710;27.258;2023-07-29T09:41:26;99756.00;;;33.28;31.48
12349;BME280;5974;42.710;27.258;2023-07-29T09:43:56;99760.06;;;32.99;32.67
12349;BME280;5974;42.710;27.258;2023-07-29T09:46:24;99755.66;;;33.11;33.09
12349;BME280;5974;42.710;27.258;2023-07-29T09:48:53;99751.63;;;33.20;32.20
12349;BME280;5974;42.710;27.258;2023-07-29T09:51:22;99758.59;;;33.03;32.37
12349;BME280;5974;42.710;27.258;2023-07-29T09:53:50;99750.59;;;33.21;31.60
12349;BME280;5974;42.710;27.258;2023-07-29T09:56:17;99745.63;;;33.49;31.54
12349;BME280;5974;42.710;27.258;2023-07-29T09:58:51;99744.59;;;33.19;32.00
12349;BME280;5974;42.710;27.258;2023-07-29T10:01:18;99745.50;;;33.38;31.75
12349;BME280;5974;42.710;27.258;2023-07-29T10:03:45;99739.31;;;33.24;32.92
12349;BME280;5974;42.710;27.258;2023-07-29T10:06:14;99723.97;;;33.43;32.11
12349;BME280;5974;42.710;27.258;2023-07-29T10:08:42;99728.06;;;33.83;31.99
12349;BME280;5974;42.710;27.258;2023-07-29T10:11:10;99729.28;;;33.31;32.57
12349;BME280;5974;42.710;27.258;2023-07-29T10:13:38;99721.00;;;33.19;31.86
12349;BME280;5974;42.710;27.258;2023-07-29T10:16:06;99712.66;;;33.52;32.11
12349;BME280;5974;42.710;27.258;2023-07-29T10:18:34;99707.38;;;33.64;33.29
12349;BME280;5974;42.710;27.258;2023-07-29T10:21:02;99714.63;;;33.70;31.88
12349;BME280;5974;42.710;27.258;2023-07-29T10:23:36;99707.59;;;34.30;33.76
12349;BME280;5974;42.710;27.258;2023-07-29T10:26:05;99699.59;;;34.17;31.22
12349;BME280;5974;42.710;27.258;2023-07-29T10:28:32;99675.91;;;33.81;32.39
12349;BME280;5974;42.710;27.258;2023-07-29T10:31:03;99697.88;;;33.98;33.84
12349;BME280;5974;42.710;27.258;2023-07-29T10:33:33;99692.56;;;34.27;33.61
12349;BME280;5974;42.710;27.258;2023-07-29T10:36:03;99634.75;;;34.27;31.49
12349;BME280;5974;42.710;27.258;2023-07-29T10:38:30;99698.09;;;34.75;30.58
12349;BME280;5974;42.710;27.258;2023-07-29T10:40:57;99695.47;;;34.69;30.75
12349;BME280;5974;42.710;27.258;2023-07-29T10:43:26;99697.56;;;34.85;30.77
12349;BME280;5974;42.710;27.258;2023-07-29T10:45:54;99691.75;;;34.81;30.86
12349;BME280;5974;42.710;27.258;2023-07-29T10:48:42;99692.50;;;34.34;32.12
12349;BME280;5974;42.710;27.258;2023-07-29T10:51:26;99690.31;;;34.00;31.94
12349;BME280;5974;42.710;27.258;2023-07-29T10:53:55;99693.03;;;34.24;31.08
12349;BME280;5974;42.710;27.258;2023-07-29T10:56:30;99687.13;;;33.85;31.28
12349;BME280;5974;42.710;27.258;2023-07-29T10:59:00;99687.59;;;33.82;31.34
12349;BME280;5974;42.710;27.258;2023-07-29T11:01:29;99686.09;;;34.10;31.56
12349;BME280;5974;42.710;27.258;2023-07-29T11:04:24;99687.91;;;33.92;31.09
12349;BME280;5974;42.710;27.258;2023-07-29T11:07:20;99680.56;;;33.74;31.84
12349;BME280;5974;42.710;27.258;2023-07-29T11:10:00;99653.91;;;33.89;33.24
12349;BME280;5974;42.710;27.258;2023-07-29T11:12:40;99680.13;;;34.20;30.90
12349;BME280;5974;42.710;27.258;2023-07-29T11:15:19;99673.50;;;34.34;31.48
12349;BME280;5974;42.710;27.258;2023-07-29T11:17:48;99687.22;;;34.21;32.02
12349;BME280;5974;42.710;27.258;2023-07-29T11:20:19;99675.69;;;33.83;33.14
12349;BME280;5974;42.710;27.258;2023-07-29T11:22:46;99670.00;;;33.10;34.80
12349;BME280;5974;42.710;27.258;2023-07-29T11:25:15;99673.28;;;32.74;35.15
12349;BME280;5974;42.710;27.258;2023-07-29T11:27:43;99683.28;;;33.18;34.23
12349;BME280;5974;42.710;27.258;2023-07-29T11:30:12;99671.47;;;33.37;34.54
12349;BME280;5974;42.710;27.258;2023-07-29T11:32:40;99667.00;;;33.74;33.74
12349;BME280;5974;42.710;27.258;2023-07-29T11:35:09;99669.56;;;33.87;35.97
12349;BME280;5974;42.710;27.258;2023-07-29T11:37:38;99632.19;;;34.14;34.29
12349;BME280;5974;42.710;27.258;2023-07-29T11:40:06;99670.88;;;34.03;33.61
12349;BME280;5974;42.710;27.258;2023-07-29T11:42:36;99675.38;;;33.91;33.79
12349;BME280;5974;42.710;27.258;2023-07-29T11:45:04;99674.50;;;33.47;34.07
12349;BME280;5974;42.710;27.258;2023-07-29T11:47:32;99676.16;;;33.98;33.78
12349;BME280;5974;42.710;27.258;2023-07-29T11:50:03;99665.25;;;33.55;33.38
12349;BME280;5974;42.710;27.258;2023-07-29T11:52:31;99666.16;;;33.73;34.63
12349;BME280;5974;42.710;27.258;2023-07-29T11:55:00;99661.44;;;33.87;34.28
12349;BME280;5974;42.710;27.258;2023-07-29T11:57:28;99655.53;;;34.15;35.08
12349;BME280;5974;42.710;27.258;2023-07-29T11:59:55;99657.09;;;34.04;35.74
12349;BME280;5974;42.710;27.258;2023-07-29T12:02:23;99659.91;;;33.73;33.34
12349;BME280;5974;42.710;27.258;2023-07-29T12:04:52;99654.47;;;33.48;34.04
12349;BME280;5974;42.710;27.258;2023-07-29T12:07:19;99658.66;;;33.44;35.50
12349;BME280;5974;42.710;27.258;2023-07-29T12:09:46;99666.22;;;33.67;34.69
12349;BME280;5974;42.710;27.258;2023-07-29T12:12:15;99664.31;;;33.92;34.27
12349;BME280;5974;42.710;27.258;2023-07-29T12:14:44;99661.63;;;33.67;34.23
12349;BME280;5974;42.710;27.258;2023-07-29T12:17:12;99651.75;;;33.48;35.39
12349;BME280;5974;42.710;27.258;2023-07-29T12:19:40;99648.69;;;33.88;34.97
12349;BME280;5974;42.710;27.258;2023-07-29T12:22:09;99655.16;;;33.68;34.61
12349;BME280;5974;42.710;27.258;2023-07-29T12:24:38;99648.13;;;34.04;34.12
12349;BME280;5974;42.710;27.258;2023-07-29T12:27:09;99646.16;;;33.93;34.90
12349;BME280;5974;42.710;27.258;2023-07-29T12:29:41;99641.66;;;33.62;34.50
12349;BME280;5974;42.710;27.258;2023-07-29T12:32:08;99643.41;;;33.50;34.93
12349;BME280;5974;42.710;27.258;2023-07-29T12:34:37;99620.38;;;33.34;35.43
12349;BME280;5974;42.710;27.258;2023-07-29T12:37:05;99647.94;;;33.56;35.58
12349;BME280;5974;42.710;27.258;2023-07-29T12:39:33;99644.78;;;33.65;35.50
12349;BME280;5974;42.710;27.258;2023-07-29T12:42:01;99644.38;;;33.62;35.47
12349;BME280;5974;42.710;27.258;2023-07-29T12:44:31;99657.34;;;33.53;35.42
12349;BME280;5974;42.710;27.258;2023-07-29T12:47:00;99652.00;;;33.47;34.76
12349;BME280;5974;42.710;27.258;2023-07-29T12:49:28;99648.63;;;33.20;34.75
12349;BME280;5974;42.710;27.258;2023-07-29T12:51:55;99646.22;;;33.37;35.19
12349;BME280;5974;42.710;27.258;2023-07-29T12:54:22;99652.06;;;32.64;36.20
12349;BME280;5974;42.710;27.258;2023-07-29T12:56:49;99641.47;;;33.01;35.88
12349;BME280;5974;42.710;27.258;2023-07-29T12:59:16;99648.75;;;33.00;36.45
12349;BME280;5974;42.710;27.258;2023-07-29T13:01:43;99647.47;;;33.09;37.69